Terminal Aerodrome Forecast
Issued by NWS

Home | Current Version | Previous Version | Text Only | Print | Product List | Glossary On
Versions: 1 2 3 4 5 6 7 8 9 10 11 12 13 14 15
000
FTUS44 KLZK 301100
TAFLIT
TAF
KLIT 301120Z 3012/0112 13006KT P6SM FEW050
     FM301700 17008KT P6SM SCT050 SCT250
     FM010000 16003KT P6SM SCT250=

USA.gov is the U.S. government's official web portal to all federal, state and local government web resources and services.